sensor_id;sensor_type;location;lat;lon;timestamp;temperature;humidity
56308;DHT22;42217;50.422;7.210;2023-04-01T00:00:56;8.40;99.90
56308;DHT22;42217;50.422;7.210;2023-04-01T00:03:23;8.40;99.90
56308;DHT22;42217;50.422;7.210;2023-04-01T00:05:50;8.40;99.90
56308;DHT22;42217;50.422;7.210;2023-04-01T00:08:16;8.50;99.90
56308;DHT22;42217;50.422;7.210;2023-04-01T00:10:42;8.50;99.90
56308;DHT22;42217;50.422;7.210;2023-04-01T00:13:08;8.50;99.90
56308;DHT22;42217;50.422;7.210;2023-04-01T00:15:35;8.60;99.90
56308;DHT22;42217;50.422;7.210;2023-04-01T00:18:00;8.50;99.90
56308;DHT22;42217;50.422;7.210;2023-04-01T00:20:27;8.50;99.90
56308;DHT22;42217;50.422;7.210;2023-04-01T00:22:52;8.50;99.90
56308;DHT22;42217;50.422;7.210;2023-04-01T00:25:18;8.50;99.90
56308;DHT22;42217;50.422;7.210;2023-04-01T00:27:44;8.40;99.90
56308;DHT22;42217;50.422;7.210;2023-04-01T00:30:10;8.40;99.90
56308;DHT22;42217;50.422;7.210;2023-04-01T00:32:36;8.30;99.90
56308;DHT22;42217;50.422;7.210;2023-04-01T00:35:03;8.30;99.90
56308;DHT22;42217;50.422;7.210;2023-04-01T00:37:29;8.40;99.90
56308;DHT22;42217;50.422;7.210;2023-04-01T00:39:55;8.50;99.90
56308;DHT22;42217;50.422;7.210;2023-04-01T00:42:21;8.50;99.90
56308;DHT22;42217;50.422;7.210;2023-04-01T00:44:52;8.40;99.90
56308;DHT22;42217;50.422;7.210;2023-04-01T00:47:19;8.40;99.90
56308;DHT22;42217;50.422;7.210;2023-04-01T00:49:48;8.40;99.90
56308;DHT22;42217;50.422;7.210;2023-04-01T00:52:19;8.40;99.90
56308;DHT22;42217;50.422;7.210;2023-04-01T00:54:48;8.30;99.90
56308;DHT22;42217;50.422;7.210;2023-04-01T00:57:50;8.30;99.90
56308;DHT22;42217;50.422;7.210;2023-04-01T01:00:10;8.30;99.90
56308;DHT22;42217;50.422;7.210;2023-04-01T01:02:36;8.30;99.90
56308;DHT22;42217;50.422;7.210;2023-04-01T01:05:02;8.40;99.90
56308;DHT22;42217;50.422;7.210;2023-04-01T01:07:45;8.50;99.90
56308;DHT22;42217;50.422;7.210;2023-04-01T01:10:29;8.50;99.90
56308;DHT22;42217;50.422;7.210;2023-04-01T01:15:34;8.30;99.90
56308;DHT22;42217;50.422;7.210;2023-04-01T01:18:22;8.30;99.90
56308;DHT22;42217;50.422;7.210;2023-04-01T01:29:33;8.30;99.90
56308;DHT22;42217;50.422;7.210;2023-04-01T01:37:13;8.40;99.90
56308;DHT22;42217;50.422;7.210;2023-04-01T01:39:43;8.40;99.90
56308;DHT22;42217;50.422;7.210;2023-04-01T01:42:11;8.30;99.90
56308;DHT22;42217;50.422;7.210;2023-04-01T01:44:40;8.30;99.90
56308;DHT22;42217;50.422;7.210;2023-04-01T01:47:07;8.40;99.90
56308;DHT22;42217;50.422;7.210;2023-04-01T01:49:34;8.50;99.90
56308;DHT22;42217;50.422;7.210;2023-04-01T01:52:01;8.40;99.90
56308;DHT22;42217;50.422;7.210;2023-04-01T01:54:26;8.40;99.90
56308;DHT22;42217;50.422;7.210;2023-04-01T01:56:59;8.40;99.90
56308;DHT22;42217;50.422;7.210;2023-04-01T01:59:27;8.30;99.90
56308;DHT22;42217;50.422;7.210;2023-04-01T02:01:56;8.40;99.90
56308;DHT22;42217;50.422;7.210;2023-04-01T02:04:24;8.40;99.90
56308;DHT22;42217;50.422;7.210;2023-04-01T02:07:01;8.40;99.90
56308;DHT22;42217;50.422;7.210;2023-04-01T02:09:27;8.40;99.90
56308;DHT22;42217;50.422;7.210;2023-04-01T02:12:01;8.40;99.90
56308;DHT22;42217;50.422;7.210;2023-04-01T02:15:05;8.30;99.90
56308;DHT22;42217;50.422;7.210;2023-04-01T02:17:29;8.20;99.90
56308;DHT22;42217;50.422;7.210;2023-04-01T02:20:02;8.10;99.90
56308;DHT22;42217;50.422;7.210;2023-04-01T02:22:33;8.10;99.90
56308;DHT22;42217;50.422;7.210;2023-04-01T02:25:06;8.10;99.90
56308;DHT22;42217;50.422;7.210;2023-04-01T02:27:33;8.20;99.90
56308;DHT22;42217;50.422;7.210;2023-04-01T02:29:59;8.20;99.90
56308;DHT22;42217;50.422;7.210;2023-04-01T02:32:25;8.20;99.90
56308;DHT22;42217;50.422;7.210;2023-04-01T02:34:52;8.20;99.90
56308;DHT22;42217;50.422;7.210;2023-04-01T02:37:18;8.20;99.90
56308;DHT22;42217;50.422;7.210;2023-04-01T02:39:44;8.10;99.90
56308;DHT22;42217;50.422;7.210;2023-04-01T02:42:09;8.00;99.90
56308;DHT22;42217;50.422;7.210;2023-04-01T02:44:36;8.00;99.90
56308;DHT22;42217;50.422;7.210;2023-04-01T02:47:02;8.00;99.90
56308;DHT22;42217;50.422;7.210;2023-04-01T02:49:27;8.10;99.90
56308;DHT22;42217;50.422;7.210;2023-04-01T02:51:53;8.10;99.90
56308;DHT22;42217;50.422;7.210;2023-04-01T02:54:19;8.10;99.90
56308;DHT22;42217;50.422;7.210;2023-04-01T02:56:45;8.10;99.90
56308;DHT22;42217;50.422;7.210;2023-04-01T02:59:11;8.10;99.90
56308;DHT22;42217;50.422;7.210;2023-04-01T03:01:37;8.10;99.90
56308;DHT22;42217;50.422;7.210;2023-04-01T03:04:04;8.10;99.90
56308;DHT22;42217;50.422;7.210;2023-04-01T03:06:29;8.10;99.90
56308;DHT22;42217;50.422;7.210;2023-04-01T03:08:55;8.10;99.90
56308;DHT22;42217;50.422;7.210;2023-04-01T03:11:21;8.00;99.90
56308;DHT22;42217;50.422;7.210;2023-04-01T03:13:47;7.90;99.90
56308;DHT22;42217;50.422;7.210;2023-04-01T03:16:13;8.00;99.90
56308;DHT22;42217;50.422;7.210;2023-04-01T03:18:38;8.00;99.90
56308;DHT22;42217;50.422;7.210;2023-04-01T03:23:40;8.00;99.90
56308;DHT22;42217;50.422;7.210;2023-04-01T03:26:06;8.00;99.90
56308;DHT22;42217;50.422;7.210;2023-04-01T03:28:31;7.90;99.90
56308;DHT22;42217;50.422;7.210;2023-04-01T03:30:57;8.00;99.90
56308;DHT22;42217;50.422;7.210;2023-04-01T03:33:23;8.00;99.90
56308;DHT22;42217;50.422;7.210;2023-04-01T03:35:48;8.00;99.90
56308;DHT22;42217;50.422;7.210;2023-04-01T03:38:17;8.00;99.90
56308;DHT22;42217;50.422;7.210;2023-04-01T03:40:43;8.10;99.90
56308;DHT22;42217;50.422;7.210;2023-04-01T03:43:09;8.00;99.90
56308;DHT22;42217;50.422;7.210;2023-04-01T03:45:43;8.00;99.90
56308;DHT22;42217;50.422;7.210;2023-04-01T03:48:08;8.10;99.90
56308;DHT22;42217;50.422;7.210;2023-04-01T03:50:34;8.20;99.90
56308;DHT22;42217;50.422;7.210;2023-04-01T03:53:00;8.10;99.90
56308;DHT22;42217;50.422;7.210;2023-04-01T03:55:26;8.00;99.90
56308;DHT22;42217;50.422;7.210;2023-04-01T03:57:51;8.10;99.90
56308;DHT22;42217;50.422;7.210;2023-04-01T04:00:17;8.10;99.90
56308;DHT22;42217;50.422;7.210;2023-04-01T04:02:44;8.00;99.90
56308;DHT22;42217;50.422;7.210;2023-04-01T04:05:10;8.10;99.90
56308;DHT22;42217;50.422;7.210;2023-04-01T04:07:36;8.10;99.90
56308;DHT22;42217;50.422;7.210;2023-04-01T04:10:02;8.10;99.90
56308;DHT22;42217;50.422;7.210;2023-04-01T04:12:28;8.10;99.90
56308;DHT22;42217;50.422;7.210;2023-04-01T04:14:53;7.90;99.90
56308;DHT22;42217;50.422;7.210;2023-04-01T04:17:19;7.90;99.90
56308;DHT22;42217;50.422;7.210;2023-04-01T04:19:45;7.90;99.90
56308;DHT22;42217;50.422;7.210;2023-04-01T04:22:10;8.00;99.90
56308;DHT22;42217;50.422;7.210;2023-04-01T04:24:36;7.90;99.90
56308;DHT22;42217;50.422;7.210;2023-04-01T04:27:03;7.90;99.90
56308;DHT22;42217;50.422;7.210;2023-04-01T04:29:29;7.90;99.90
56308;DHT22;42217;50.422;7.210;2023-04-01T04:31:55;7.80;99.90
56308;DHT22;42217;50.422;7.210;2023-04-01T04:34:20;7.90;99.90
56308;DHT22;42217;50.422;7.210;2023-04-01T04:36:48;7.80;99.90
56308;DHT22;42217;50.422;7.210;2023-04-01T04:39:14;7.70;99.90
56308;DHT22;42217;50.422;7.210;2023-04-01T04:41:40;7.70;99.90
56308;DHT22;42217;50.422;7.210;2023-04-01T04:44:06;7.70;99.90
56308;DHT22;42217;50.422;7.210;2023-04-01T04:46:32;7.80;99.90
56308;DHT22;42217;50.422;7.210;2023-04-01T04:48:57;7.80;99.90
56308;DHT22;42217;50.422;7.210;2023-04-01T04:51:23;7.80;99.90
56308;DHT22;42217;50.422;7.210;2023-04-01T04:53:49;7.90;99.90
56308;DHT22;42217;50.422;7.210;2023-04-01T04:56:19;7.90;99.90
56308;DHT22;42217;50.422;7.210;2023-04-01T04:58:45;7.90;99.90
56308;DHT22;42217;50.422;7.210;2023-04-01T05:01:14;7.90;99.90
56308;DHT22;42217;50.422;7.210;2023-04-01T05:03:40;7.90;99.90
56308;DHT22;42217;50.422;7.210;2023-04-01T05:06:07;7.90;99.90
56308;DHT22;42217;50.422;7.210;2023-04-01T05:08:34;7.90;99.90
56308;DHT22;42217;50.422;7.210;2023-04-01T05:11:00;8.00;99.90
56308;DHT22;42217;50.422;7.210;2023-04-01T05:13:30;8.00;99.90
56308;DHT22;42217;50.422;7.210;2023-04-01T05:15:55;8.00;99.90
56308;DHT22;42217;50.422;7.210;2023-04-01T05:18:21;8.10;99.90
56308;DHT22;42217;50.422;7.210;2023-04-01T05:20:49;8.10;99.90
56308;DHT22;42217;50.422;7.210;2023-04-01T05:23:15;8.10;99.90
56308;DHT22;42217;50.422;7.210;2023-04-01T05:25:41;8.10;99.90
56308;DHT22;42217;50.422;7.210;2023-04-01T05:28:08;8.00;99.90
56308;DHT22;42217;50.422;7.210;2023-04-01T05:30:34;8.00;99.90
56308;DHT22;42217;50.422;7.210;2023-04-01T05:33:00;8.00;99.90
56308;DHT22;42217;50.422;7.210;2023-04-01T05:35:25;7.90;99.90
56308;DHT22;42217;50.422;7.210;2023-04-01T05:37:51;8.00;99.90
56308;DHT22;42217;50.422;7.210;2023-04-01T05:40:17;8.00;99.90
56308;DHT22;42217;50.422;7.210;2023-04-01T05:42:42;8.10;99.90
56308;DHT22;42217;50.422;7.210;2023-04-01T05:45:09;8.10;99.90
56308;DHT22;42217;50.422;7.210;2023-04-01T05:47:37;8.10;99.90
56308;DHT22;42217;50.422;7.210;2023-04-01T05:50:03;8.20;99.90
56308;DHT22;42217;50.422;7.210;2023-04-01T05:52:29;8.20;99.90
56308;DHT22;42217;50.422;7.210;2023-04-01T05:54:55;8.20;99.90
56308;DHT22;42217;50.422;7.210;2023-04-01T05:57:20;8.20;99.90
56308;DHT22;42217;50.422;7.210;2023-04-01T05:59:46;8.30;99.90
56308;DHT22;42217;50.422;7.210;2023-04-01T06:02:12;8.30;99.90
56308;DHT22;42217;50.422;7.210;2023-04-01T06:04:39;8.40;99.90
56308;DHT22;42217;50.422;7.210;2023-04-01T06:07:11;8.30;99.90
56308;DHT22;42217;50.422;7.210;2023-04-01T06:09:38;8.50;99.90
56308;DHT22;42217;50.422;7.210;2023-04-01T06:15:01;8.60;99.90
56308;DHT22;42217;50.422;7.210;2023-04-01T06:17:49;8.60;99.90
56308;DHT22;42217;50.422;7.210;2023-04-01T06:23:32;8.50;99.90
56308;DHT22;42217;50.422;7.210;2023-04-01T06:53:56;9.20;99.90
56308;DHT22;42217;50.422;7.210;2023-04-01T06:56:26;9.30;99.90
56308;DHT22;42217;50.422;7.210;2023-04-01T06:59:15;9.30;99.90
56308;DHT22;42217;50.422;7.210;2023-04-01T07:01:52;9.30;99.90
56308;DHT22;42217;50.422;7.210;2023-04-01T07:04:32;9.50;99.90
56308;DHT22;42217;50.422;7.210;2023-04-01T07:07:13;9.60;99.90
56308;DHT22;42217;50.422;7.210;2023-04-01T07:09:45;9.60;99.90
56308;DHT22;42217;50.422;7.210;2023-04-01T07:12:20;9.70;99.90
56308;DHT22;42217;50.422;7.210;2023-04-01T07:14:48;9.70;99.90
56308;DHT22;42217;50.422;7.210;2023-04-01T07:17:19;9.80;99.90
56308;DHT22;42217;50.422;7.210;2023-04-01T07:22:32;9.90;99.90
56308;DHT22;42217;50.422;7.210;2023-04-01T07:25:02;9.90;99.90
56308;DHT22;42217;50.422;7.210;2023-04-01T07:27:28;9.90;99.90
56308;DHT22;42217;50.422;7.210;2023-04-01T07:29:57;9.90;99.90
56308;DHT22;42217;50.422;7.210;2023-04-01T07:35:05;10.00;99.90
56308;DHT22;42217;50.422;7.210;2023-04-01T07:37:52;10.00;99.90
56308;DHT22;42217;50.422;7.210;2023-04-01T07:43:28;9.90;99.90
56308;DHT22;42217;50.422;7.210;2023-04-01T07:51:20;10.30;99.90
56308;DHT22;42217;50.422;7.210;2023-04-01T07:56:35;10.40;99.90
56308;DHT22;42217;50.422;7.210;2023-04-01T08:02:01;10.50;99.90
56308;DHT22;42217;50.422;7.210;2023-04-01T08:09:54;9.90;99.90
56308;DHT22;42217;50.422;7.210;2023-04-01T08:15:21;10.00;99.90
56308;DHT22;42217;50.422;7.210;2023-04-01T08:23:24;10.20;99.90
56308;DHT22;42217;50.422;7.210;2023-04-01T08:28:29;10.20;99.90
56308;DHT22;42217;50.422;7.210;2023-04-01T08:31:04;10.20;99.90
56308;DHT22;42217;50.422;7.210;2023-04-01T08:33:32;10.20;99.90
56308;DHT22;42217;50.422;7.210;2023-04-01T08:38:52;10.00;99.90
56308;DHT22;42217;50.422;7.210;2023-04-01T09:01:51;10.70;99.90
56308;DHT22;42217;50.422;7.210;2023-04-01T09:13:13;10.70;99.90
56308;DHT22;42217;50.422;7.210;2023-04-01T09:27:09;10.60;99.90
56308;DHT22;42217;50.422;7.210;2023-04-01T09:29:47;10.70;99.90
56308;DHT22;42217;50.422;7.210;2023-04-01T09:32:40;10.90;99.90
56308;DHT22;42217;50.422;7.210;2023-04-01T09:51:43;11.00;99.90
56308;DHT22;42217;50.422;7.210;2023-04-01T10:10:59;10.70;99.90
56308;DHT22;42217;50.422;7.210;2023-04-01T10:17:13;10.70;99.90
56308;DHT22;42217;50.422;7.210;2023-04-01T10:20:02;10.80;99.90
56308;DHT22;42217;50.422;7.210;2023-04-01T10:45:52;12.30;99.90
56308;DHT22;42217;50.422;7.210;2023-04-01T10:57:28;11.60;99.90
56308;DHT22;42217;50.422;7.210;2023-04-01T11:32:54;13.50;99.90
56308;DHT22;42217;50.422;7.210;2023-04-01T11:44:24;11.90;99.90
56308;DHT22;42217;50.422;7.210;2023-04-01T12:09:06;12.80;99.90
56308;DHT22;42217;50.422;7.210;2023-04-01T12:11:45;12.70;99.90
56308;DHT22;42217;50.422;7.210;2023-04-01T12:14:27;12.70;99.90
56308;DHT22;42217;50.422;7.210;2023-04-01T12:17:25;12.80;99.90
56308;DHT22;42217;50.422;7.210;2023-04-01T12:20:12;12.50;99.90
56308;DHT22;42217;50.422;7.210;2023-04-01T12:44:56;13.00;99.90
56308;DHT22;42217;50.422;7.210;2023-04-01T12:53:23;12.90;99.90
56308;DHT22;42217;50.422;7.210;2023-04-01T12:55:54;12.90;99.90
56308;DHT22;42217;50.422;7.210;2023-04-01T13:04:27;12.70;99.90
56308;DHT22;42217;50.422;7.210;2023-04-01T13:15:31;12.10;99.90
56308;DHT22;42217;50.422;7.210;2023-04-01T13:20:48;12.10;99.90
56308;DHT22;42217;50.422;7.210;2023-04-01T13:24:05;12.20;99.90
56308;DHT22;42217;50.422;7.210;2023-04-01T13:27:01;12.50;99.90
56308;DHT22;42217;50.422;7.210;2023-04-01T13:29:40;12.90;99.90
56308;DHT22;42217;50.422;7.210;2023-04-01T13:40:34;13.80;98.50
56308;DHT22;42217;50.422;7.210;2023-04-01T13:43:12;13.70;95.20
56308;DHT22;42217;50.422;7.210;2023-04-01T14:02:29;13.50;88.60
56308;DHT22;42217;50.422;7.210;2023-04-01T14:11:20;13.00;99.90
56308;DHT22;42217;50.422;7.210;2023-04-01T14:25:17;12.80;94.30
56308;DHT22;42217;50.422;7.210;2023-04-01T14:27:50;12.70;94.00
56308;DHT22;42217;50.422;7.210;2023-04-01T14:33:50;12.20;99.90
56308;DHT22;42217;50.422;7.210;2023-04-01T14:40:15;12.30;99.90
56308;DHT22;42217;50.422;7.210;2023-04-01T14:56:43;16.40;1.00
56308;DHT22;42217;50.422;7.210;2023-04-01T14:59:29;15.40;10.40
56308;DHT22;42217;50.422;7.210;2023-04-01T15:04:50;14.00;47.80
56308;DHT22;42217;50.422;7.210;2023-04-01T15:19:05;12.80;93.60
56308;DHT22;42217;50.422;7.210;2023-04-01T15:24:20;12.80;93.30
56308;DHT22;42217;50.422;7.210;2023-04-01T15:38:26;11.80;99.90
56308;DHT22;42217;50.422;7.210;2023-04-01T15:43:47;11.90;99.90
56308;DHT22;42217;50.422;7.210;2023-04-01T15:57:40;12.50;99.90
56308;DHT22;42217;50.422;7.210;2023-04-01T16:00:28;13.20;92.20
56308;DHT22;42217;50.422;7.210;2023-04-01T16:13:52;12.20;99.90
56308;DHT22;42217;50.422;7.210;2023-04-01T16:18:59;11.80;99.90
56308;DHT22;42217;50.422;7.210;2023-04-01T16:21:37;11.70;99.90
56308;DHT22;42217;50.422;7.210;2023-04-01T16:24:34;11.60;99.90
56308;DHT22;42217;50.422;7.210;2023-04-01T16:32:30;11.70;99.90
56308;DHT22;42217;50.422;7.210;2023-04-01T16:37:59;11.20;99.90
56308;DHT22;42217;50.422;7.210;2023-04-01T16:40:44;11.10;99.90
56308;DHT22;42217;50.422;7.210;2023-04-01T16:44:09;11.00;99.90
56308;DHT22;42217;50.422;7.210;2023-04-01T16:46:37;10.90;99.90
56308;DHT22;42217;50.422;7.210;2023-04-01T16:54:30;11.20;99.90
56308;DHT22;42217;50.422;7.210;2023-04-01T16:57:46;11.30;99.90
56308;DHT22;42217;50.422;7.210;2023-04-01T17:02:47;11.20;99.90
56308;DHT22;42217;50.422;7.210;2023-04-01T17:05:16;11.00;99.90
56308;DHT22;42217;50.422;7.210;2023-04-01T17:13:28;10.60;99.90
56308;DHT22;42217;50.422;7.210;2023-04-01T17:21:16;10.30;99.90
56308;DHT22;42217;50.422;7.210;2023-04-01T17:32:39;9.80;99.90
56308;DHT22;42217;50.422;7.210;2023-04-01T17:35:50;9.70;99.90
56308;DHT22;42217;50.422;7.210;2023-04-01T17:41:16;9.60;99.90
56308;DHT22;42217;50.422;7.210;2023-04-01T17:51:50;9.50;99.90
56308;DHT22;42217;50.422;7.210;2023-04-01T17:56:59;9.60;99.90
56308;DHT22;42217;50.422;7.210;2023-04-01T17:59:39;9.50;99.90
56308;DHT22;42217;50.422;7.210;2023-04-01T18:02:49;9.50;99.90
56308;DHT22;42217;50.422;7.210;2023-04-01T18:19:09;9.40;99.90
56308;DHT22;42217;50.422;7.210;2023-04-01T18:24:40;9.20;99.90
56308;DHT22;42217;50.422;7.210;2023-04-01T18:27:23;9.10;99.90
56308;DHT22;42217;50.422;7.210;2023-04-01T18:30:03;9.10;99.90
56308;DHT22;42217;50.422;7.210;2023-04-01T18:32:43;9.20;99.90
56308;DHT22;42217;50.422;7.210;2023-04-01T18:38:13;9.20;99.90
56308;DHT22;42217;50.422;7.210;2023-04-01T18:40:43;9.20;99.90
56308;DHT22;42217;50.422;7.210;2023-04-01T18:43:31;9.10;99.90
56308;DHT22;42217;50.422;7.210;2023-04-01T18:51:51;9.00;99.90
56308;DHT22;42217;50.422;7.210;2023-04-01T18:57:52;8.90;99.90
56308;DHT22;42217;50.422;7.210;2023-04-01T19:01:08;8.90;99.90
56308;DHT22;42217;50.422;7.210;2023-04-01T19:03:32;8.90;99.90
56308;DHT22;42217;50.422;7.210;2023-04-01T19:06:02;8.90;99.90
56308;DHT22;42217;50.422;7.210;2023-04-01T19:08:38;8.90;99.90
56308;DHT22;42217;50.422;7.210;2023-04-01T19:11:26;8.80;99.90
56308;DHT22;42217;50.422;7.210;2023-04-01T19:19:55;8.70;99.90
56308;DHT22;42217;50.422;7.210;2023-04-01T19:22:41;8.70;99.90
56308;DHT22;42217;50.422;7.210;2023-04-01T19:30:53;8.60;99.90
56308;DHT22;42217;50.422;7.210;2023-04-01T19:36:34;8.60;99.90
56308;DHT22;42217;50.422;7.210;2023-04-01T19:47:46;8.50;99.90
56308;DHT22;42217;50.422;7.210;2023-04-01T19:52:46;8.40;99.90
56308;DHT22;42217;50.422;7.210;2023-04-01T20:00:43;8.40;99.90
56308;DHT22;42217;50.422;7.210;2023-04-01T20:06:07;8.50;99.90
56308;DHT22;42217;50.422;7.210;2023-04-01T20:28:05;8.50;99.90
56308;DHT22;42217;50.422;7.210;2023-04-01T20:41:37;8.50;99.90
56308;DHT22;42217;50.422;7.210;2023-04-01T21:04:36;8.10;99.90
56308;DHT22;42217;50.422;7.210;2023-04-01T21:07:43;8.30;99.90
56308;DHT22;42217;50.422;7.210;2023-04-01T21:18:38;8.60;99.90
56308;DHT22;42217;50.422;7.210;2023-04-01T21:46:03;8.50;99.90
56308;DHT22;42217;50.422;7.210;2023-04-01T21:51:41;8.60;99.90
56308;DHT22;42217;50.422;7.210;2023-04-01T21:56:58;8.50;99.90
56308;DHT22;42217;50.422;7.210;2023-04-01T22:02:31;8.30;99.90
56308;DHT22;42217;50.422;7.210;2023-04-01T22:05:20;8.30;99.90
56308;DHT22;42217;50.422;7.210;2023-04-01T22:21:18;8.20;99.90
56308;DHT22;42217;50.422;7.210;2023-04-01T22:29:26;7.90;99.90
56308;DHT22;42217;50.422;7.210;2023-04-01T22:32:18;8.00;99.90
56308;DHT22;42217;50.422;7.210;2023-04-01T22:37:41;8.00;99.90
56308;DHT22;42217;50.422;7.210;2023-04-01T22:40:16;8.00;99.90
56308;DHT22;42217;50.422;7.210;2023-04-01T22:42:53;7.90;99.90
56308;DHT22;42217;50.422;7.210;2023-04-01T22:48:08;7.90;99.90
56308;DHT22;42217;50.422;7.210;2023-04-01T22:50:37;8.00;99.90
56308;DHT22;42217;50.422;7.210;2023-04-01T22:56:06;7.90;99.90
56308;DHT22;42217;50.422;7.210;2023-04-01T22:58:36;8.00;99.90
56308;DHT22;42217;50.422;7.210;2023-04-01T23:01:16;8.00;99.90
56308;DHT22;42217;50.422;7.210;2023-04-01T23:03:48;8.00;99.90
56308;DHT22;42217;50.422;7.210;2023-04-01T23:06:25;8.00;99.90
56308;DHT22;42217;50.422;7.210;2023-04-01T23:11:38;8.00;99.90
56308;DHT22;42217;50.422;7.210;2023-04-01T23:19:54;8.00;99.90
56308;DHT22;42217;50.422;7.210;2023-04-01T23:33:29;8.00;99.90
56308;DHT22;42217;50.422;7.210;2023-04-01T23:36:12;7.90;99.90
56308;DHT22;42217;50.422;7.210;2023-04-01T23:38:43;7.90;99.90
56308;DHT22;42217;50.422;7.210;2023-04-01T23:41:27;7.90;99.90
56308;DHT22;42217;50.422;7.210;2023-04-01T23:44:04;7.90;99.90
56308;DHT22;42217;50.422;7.210;2023-04-01T23:46:32;7.90;99.90
56308;DHT22;42217;50.422;7.210;2023-04-01T23:48:59;7.90;99.90
56308;DHT22;42217;50.422;7.210;2023-04-01T23:51:37;7.90;99.90
56308;DHT22;42217;50.422;7.210;2023-04-01T23:56:55;8.00;99.90
56308;DHT22;42217;50.422;7.210;2023-04-01T23:59:31;8.00;99.90
